Time;durP1;ratioP1;P1;durP2;ratioP2;P2;SDS_P1;SDS_P2;PMS_P1;PMS_P2;Temp;Humidity;BMP_temperature;BMP_pressure;BME280_temperature;BME280_humidity;BME280_pressure;Samples;Min_cycle;Max_cycle;Signal;HPM_P1;HPM_P2
2021/07/04 00:02:04;;;;;;;4.97;3.27;;;;;;;16.16;87.79;100684.75;5098507;28;20542;-71
2021/07/04 00:04:29;;;;;;;4.87;3.70;;;;;;;16.18;87.47;100687.31;5097589;28;20200;-70
2021/07/04 00:06:54;;;;;;;6.33;3.60;;;;;;;16.21;87.81;100687.94;5097517;28;20185;-70
2021/07/04 00:09:20;;;;;;;4.30;3.73;;;;;;;16.26;87.18;100695.66;5097544;28;20169;-70
2021/07/04 00:11:45;;;;;;;4.13;3.47;;;;;;;16.26;87.51;100688.44;5097608;28;20173;-70
2021/07/04 00:14:11;;;;;;;4.33;3.47;;;;;;;16.25;87.28;100683.16;5097306;28;20193;-71
2021/07/04 00:16:36;;;;;;;4.03;3.70;;;;;;;16.31;86.89;100676.44;5097387;28;20618;-70
2021/07/04 00:19:01;;;;;;;6.07;4.30;;;;;;;16.30;86.39;100680.97;5097303;28;20169;-70
2021/07/04 00:21:27;;;;;;;4.97;3.90;;;;;;;16.28;86.31;100677.53;5097275;28;20268;-72
2021/07/04 00:23:52;;;;;;;4.90;3.73;;;;;;;16.25;85.76;100681.34;5097126;28;20216;-71
2021/07/04 00:26:17;;;;;;;8.10;4.40;;;;;;;16.21;85.77;100677.16;5097097;28;20625;-72
2021/07/04 00:28:43;;;;;;;5.60;4.50;;;;;;;16.23;85.39;100674.34;5096745;28;20623;-71
2021/07/04 00:31:08;;;;;;;5.73;4.20;;;;;;;16.22;85.46;100675.34;5079984;28;20173;-71
2021/07/04 00:33:33;;;;;;;4.43;3.73;;;;;;;16.19;84.96;100676.44;5079845;28;20284;-71
2021/07/04 00:35:59;;;;;;;5.63;4.20;;;;;;;16.19;85.38;100672.88;5097087;28;20534;-71
2021/07/04 00:38:25;;;;;;;12.37;4.43;;;;;;;16.19;85.51;100672.88;5096759;28;20645;-71
2021/07/04 00:40:50;;;;;;;4.90;3.70;;;;;;;16.16;85.16;100671.28;5079946;28;20169;-71
2021/07/04 00:43:16;;;;;;;6.90;4.40;;;;;;;16.19;85.22;100672.88;5079899;28;20197;-71
2021/07/04 00:45:41;;;;;;;8.70;4.70;;;;;;;16.17;85.59;100666.75;5079844;28;20177;-71
2021/07/04 00:48:07;;;;;;;7.63;4.23;;;;;;;16.15;85.41;100668.72;5079653;28;20181;-71
2021/07/04 00:50:32;;;;;;;4.93;3.80;;;;;;;16.15;85.20;100671.41;5096659;28;20181;-71
2021/07/04 00:52:59;;;;;;;4.93;4.03;;;;;;;16.13;85.50;100667.97;5096736;28;20165;-71
2021/07/04 00:55:25;;;;;;;4.53;4.00;;;;;;;16.15;85.72;100666.88;5096723;28;20207;-71
2021/07/04 00:57:50;;;;;;;5.70;3.97;;;;;;;16.18;86.02;100665.78;5096665;28;20204;-71
2021/07/04 01:00:18;;;;;;;4.57;3.73;;;;;;;16.22;85.60;100664.56;5096613;28;20169;-71
2021/07/04 01:02:44;;;;;;;8.43;4.20;;;;;;;16.26;85.54;100668.72;5096676;28;20173;-71
2021/07/04 01:05:11;;;;;;;5.27;3.90;;;;;;;16.34;85.60;100673.50;5079634;28;20177;-71
2021/07/04 01:07:36;;;;;;;4.90;4.00;;;;;;;16.40;85.54;100670.34;5079706;28;20189;-71
2021/07/04 01:10:04;;;;;;;5.50;4.17;;;;;;;16.40;85.19;100670.34;5079243;28;20173;-73
2021/07/04 01:12:30;;;;;;;4.47;3.93;;;;;;;16.38;85.75;100670.47;5096385;28;20660;-71
2021/07/04 01:14:55;;;;;;;6.07;4.10;;;;;;;16.48;85.62;100668.75;5096512;28;20189;-71
2021/07/04 01:17:20;;;;;;;5.20;3.90;;;;;;;16.46;85.32;100675.22;5096286;28;20173;-70
2021/07/04 01:19:46;;;;;;;5.07;4.23;;;;;;;16.40;85.51;100667.66;5079235;28;20323;-71
2021/07/04 01:22:11;;;;;;;6.07;4.33;;;;;;;16.41;85.49;100672.91;5096289;28;20181;-70
2021/07/04 01:24:37;;;;;;;4.47;4.00;;;;;;;16.28;86.36;100666.75;5095914;28;20260;-71
2021/07/04 01:27:02;;;;;;;7.27;4.87;;;;;;;16.23;86.94;100666.28;5079140;28;20201;-71
2021/07/04 01:29:28;;;;;;;5.33;4.13;;;;;;;16.30;87.17;100667.50;5096118;28;20198;-70
2021/07/04 01:31:53;;;;;;;6.90;4.23;;;;;;;16.30;87.53;100664.81;5079234;28;20229;-71
2021/07/04 01:34:19;;;;;;;3.93;3.40;;;;;;;16.25;87.33;100662.47;5096456;28;20200;-71
2021/07/04 01:36:44;;;;;;;7.03;4.60;;;;;;;16.23;88.00;100660.88;5096151;28;20174;-72
2021/07/04 01:39:09;;;;;;;4.93;4.10;;;;;;;16.22;87.72;100657.34;5078933;28;20178;-72
2021/07/04 01:41:35;;;;;;;6.67;4.80;;;;;;;16.19;87.81;100652.19;5095571;28;20177;-71
2021/07/04 01:44:00;;;;;;;6.20;5.00;;;;;;;16.16;87.81;100662.34;5095842;28;20209;-71
2021/07/04 01:46:26;;;;;;;6.73;4.13;;;;;;;16.19;88.14;100662.13;5095756;28;20233;-72
2021/07/04 01:48:51;;;;;;;4.60;4.10;;;;;;;16.24;87.71;100649.13;5096148;28;20530;-71
2021/07/04 01:51:16;;;;;;;9.67;4.27;;;;;;;16.31;87.72;100655.75;5115016;28;20177;-71
2021/07/04 01:53:42;;;;;;;4.70;3.70;;;;;;;16.38;87.66;100646.22;5114226;28;20232;-71
2021/07/04 01:56:07;;;;;;;5.03;4.30;;;;;;;16.40;87.79;100652.34;5114161;28;20173;-70
2021/07/04 01:58:37;;;;;;;3.73;3.43;;;;;;;16.40;88.14;100648.78;5078920;28;20177;-70
2021/07/04 02:01:05;;;;;;;4.20;3.27;;;;;;;16.24;89.35;100651.84;5096073;28;20359;-70
2021/07/04 02:03:30;;;;;;;9.03;3.83;;;;;;;16.14;89.81;100646.31;5095534;28;20197;-70
2021/07/04 02:05:56;;;;;;;4.10;3.70;;;;;;;16.11;89.96;100645.72;5095910;28;20193;-70
2021/07/04 02:08:21;;;;;;;6.17;4.23;;;;;;;16.07;90.10;100647.78;5096070;28;20177;-70
2021/07/04 02:10:46;;;;;;;8.00;4.67;;;;;;;15.97;89.86;100657.53;5113699;28;20180;-70
2021/07/04 02:13:12;;;;;;;6.73;6.03;;;;;;;15.91;90.90;100647.25;5095673;28;20243;-71
2021/07/04 02:15:41;;;;;;;6.63;5.00;;;;;;;15.94;91.01;100649.72;5078868;28;20181;-70
2021/07/04 02:18:15;;;;;;;9.57;5.07;;;;;;;15.99;90.87;100644.00;5096057;28;20641;-70
2021/07/04 02:20:47;;;;;;;8.20;4.77;;;;;;;15.96;91.09;100647.75;5078628;28;20165;-70
2021/07/04 02:23:16;;;;;;;5.93;5.03;;;;;;;16.06;90.93;100645.22;5095611;28;20233;-70
2021/07/04 02:25:45;;;;;;;7.70;5.50;;;;;;;16.03;90.99;100642.78;5095601;28;20260;-69
2021/07/04 02:28:12;;;;;;;5.83;4.83;;;;;;;16.06;90.73;100646.06;5095510;28;20542;-71
2021/07/04 02:30:38;;;;;;;10.13;4.63;;;;;;;16.10;90.56;100641.31;5078629;28;20587;-70
2021/07/04 02:33:06;;;;;;;6.43;4.30;;;;;;;16.09;90.60;100640.44;5113800;28;20193;-71
2021/07/04 02:35:33;;;;;;;7.00;4.20;;;;;;;16.11;90.66;100640.31;5095745;28;20205;-71
2021/07/04 02:37:58;;;;;;;7.07;4.77;;;;;;;16.13;90.23;100641.06;5095119;28;20518;-70
2021/07/04 02:40:25;;;;;;;5.77;4.20;;;;;;;16.14;90.17;100637.38;5095123;28;20200;-70
2021/07/04 02:42:50;;;;;;;6.70;4.43;;;;;;;16.11;90.31;100634.94;5095533;28;20177;-70
2021/07/04 02:45:15;;;;;;;4.97;4.03;;;;;;;16.08;90.07;100641.44;5078326;28;20174;-70
2021/07/04 02:47:41;;;;;;;5.90;4.00;;;;;;;16.00;90.71;100638.50;5113212;28;20668;-70
2021/07/04 02:50:07;;;;;;;5.70;4.13;;;;;;;15.91;91.56;100631.97;5094987;28;20588;-71
2021/07/04 02:52:33;;;;;;;6.30;4.70;;;;;;;15.83;91.62;100631.72;5079986;28;20711;-71
2021/07/04 02:54:58;;;;;;;5.30;3.90;;;;;;;15.82;92.25;100631.84;5098829;28;20185;-71
2021/07/04 02:57:23;;;;;;;6.27;4.33;;;;;;;15.83;91.98;100634.41;5098714;28;20178;-71
2021/07/04 02:59:48;;;;;;;7.07;4.63;;;;;;;15.84;92.55;100632.56;5099466;28;20231;-70
2021/07/04 03:02:14;;;;;;;7.43;4.90;;;;;;;15.79;92.70;100632.94;5098618;28;20208;-70
2021/07/04 03:04:39;;;;;;;9.33;5.20;;;;;;;15.74;92.66;100629.75;5081581;28;20225;-70
2021/07/04 03:07:04;;;;;;;7.37;5.70;;;;;;;15.68;92.88;100632.91;5098460;28;20207;-70
2021/07/04 03:09:30;;;;;;;7.53;5.87;;;;;;;15.67;92.91;100633.91;5098753;28;20173;-70
2021/07/04 03:11:56;;;;;;;6.90;4.97;;;;;;;15.69;92.65;100626.56;5116650;28;20170;-70
2021/07/04 03:14:21;;;;;;;5.97;5.13;;;;;;;15.76;92.71;100630.47;5081476;28;20201;-70
2021/07/04 03:16:46;;;;;;;7.43;5.17;;;;;;;15.75;93.05;100630.59;5098434;28;20170;-70
2021/07/04 03:19:12;;;;;;;6.53;5.10;;;;;;;15.74;93.08;100626.19;5098601;28;20223;-70
2021/07/04 03:21:37;;;;;;;6.53;4.57;;;;;;;15.70;93.08;100628.28;5116520;28;20165;-70
2021/07/04 03:24:02;;;;;;;4.53;3.93;;;;;;;15.67;93.42;100620.44;5081154;28;20254;-70
2021/07/04 03:26:28;;;;;;;4.33;3.93;;;;;;;15.61;93.82;100634.38;5081462;28;20194;-70
2021/07/04 03:28:53;;;;;;;4.57;4.13;;;;;;;15.55;94.31;100624.03;5081054;28;20186;-70
2021/07/04 03:31:18;;;;;;;5.87;4.87;;;;;;;15.54;94.01;100633.06;5081139;28;20173;-70
2021/07/04 03:33:44;;;;;;;5.87;4.50;;;;;;;15.54;94.39;100627.69;5080916;28;20212;-70
2021/07/04 03:36:09;;;;;;;7.97;4.67;;;;;;;15.49;94.48;100627.19;5098530;28;20618;-70
2021/07/04 03:38:34;;;;;;;6.50;5.37;;;;;;;15.48;94.85;100630.84;5098157;28;20178;-70
2021/07/04 03:40:59;;;;;;;5.57;5.07;;;;;;;15.47;94.61;100630.00;5097897;28;20178;-70
2021/07/04 03:43:25;;;;;;;5.37;4.87;;;;;;;15.47;95.10;100621.06;5080737;28;20198;-70
2021/07/04 03:45:52;;;;;;;7.17;4.90;;;;;;;15.47;95.33;100629.13;5080765;28;20593;-70
2021/07/04 03:48:17;;;;;;;6.07;5.47;;;;;;;15.50;94.27;100632.44;5097854;28;20166;-71
2021/07/04 03:50:42;;;;;;;9.13;5.37;;;;;;;15.57;93.66;100633.69;5116158;28;20230;-71
2021/07/04 03:53:07;;;;;;;7.17;6.03;;;;;;;15.67;93.17;100624.97;5097951;28;20198;-71
2021/07/04 03:55:33;;;;;;;12.17;6.33;;;;;;;15.73;93.20;100628.03;5097567;28;20189;-71
2021/07/04 03:57:58;;;;;;;10.67;6.20;;;;;;;15.77;92.62;100621.44;5097502;28;20180;-71
2021/07/04 04:00:24;;;;;;;8.43;5.63;;;;;;;15.85;92.38;100631.59;5097606;28;20177;-71
2021/07/04 04:02:49;;;;;;;7.13;5.63;;;;;;;15.91;91.60;100631.97;5080383;28;20597;-71
2021/07/04 04:05:14;;;;;;;8.13;5.50;;;;;;;15.91;92.63;100629.28;5114916;28;20196;-71
2021/07/04 04:07:41;;;;;;;5.90;5.30;;;;;;;15.92;92.32;100628.31;5097134;28;20252;-71
2021/07/04 04:10:07;;;;;;;6.60;5.13;;;;;;;16.03;92.53;100624.78;5101822;28;20169;-71
2021/07/04 04:12:32;;;;;;;6.37;5.20;;;;;;;16.11;91.80;100632.25;5097571;28;20201;-71
2021/07/04 04:15:00;;;;;;;7.47;4.70;;;;;;;16.04;91.98;100634.56;5116008;28;20228;-71
2021/07/04 04:17:26;;;;;;;5.67;5.00;;;;;;;16.05;91.29;100632.75;5115817;28;20174;-72
2021/07/04 04:19:51;;;;;;;6.80;4.87;;;;;;;16.04;91.58;100628.34;5096953;28;20181;-72
2021/07/04 04:22:17;;;;;;;7.23;4.50;;;;;;;16.08;91.55;100627.13;5097146;28;20177;-72
2021/07/04 04:24:42;;;;;;;5.90;5.30;;;;;;;16.13;90.61;100623.06;5105408;22;20222;-71
2021/07/04 04:27:07;;;;;;;5.47;4.97;;;;;;;16.18;89.81;100636.16;5077261;28;20214;-71
2021/07/04 04:29:33;;;;;;;8.67;5.83;;;;;;;16.28;89.81;100634.44;5076549;28;20473;-71
2021/07/04 04:31:58;;;;;;;8.83;5.57;;;;;;;16.38;89.30;100627.38;5094577;28;20534;-71
2021/07/04 04:34:23;;;;;;;5.30;4.80;;;;;;;16.49;89.25;100632.75;5094681;28;20273;-71
2021/07/04 04:36:49;;;;;;;6.50;5.07;;;;;;;16.55;88.71;100634.94;5094512;28;20538;-71
2021/07/04 04:39:14;;;;;;;5.43;4.83;;;;;;;16.62;89.08;100637.13;5076341;28;20196;-72
2021/07/04 04:41:39;;;;;;;5.53;4.83;;;;;;;16.68;88.67;100647.44;5076189;28;20174;-71
2021/07/04 04:44:05;;;;;;;7.23;4.83;;;;;;;16.71;88.40;100652.56;5059372;28;20198;-71
2021/07/04 04:46:31;;;;;;;6.77;5.43;;;;;;;16.94;87.79;100646.16;5076155;28;20194;-71
2021/07/04 04:48:57;;;;;;;6.57;4.57;;;;;;;17.00;86.89;100653.75;5076386;28;20768;-71
2021/07/04 04:51:23;;;;;;;7.40;4.80;;;;;;;16.88;86.70;100657.47;5094458;28;20184;-71
2021/07/04 04:53:48;;;;;;;13.60;5.37;;;;;;;16.96;86.75;100654.97;5076256;28;20190;-71
2021/07/04 04:56:13;;;;;;;7.67;4.53;;;;;;;17.01;86.67;100650.06;5076018;28;20170;-71
2021/07/04 04:58:39;;;;;;;9.07;5.30;;;;;;;17.06;85.61;100652.38;5094399;28;20174;-71
2021/07/04 05:01:04;;;;;;;8.00;4.57;;;;;;;17.22;85.02;100642.03;5075878;28;20182;-72
2021/07/04 05:03:29;;;;;;;6.63;3.83;;;;;;;17.37;84.85;100643.44;5094596;28;20251;-70
2021/07/04 05:05:54;;;;;;;5.03;4.33;;;;;;;17.41;84.67;100644.91;5094306;28;20666;-70
2021/07/04 05:08:20;;;;;;;7.10;4.87;;;;;;;17.43;84.24;100647.47;5094076;28;20669;-70
2021/07/04 05:10:45;;;;;;;5.23;4.30;;;;;;;17.44;84.95;100646.47;5093860;28;20170;-71
2021/07/04 05:13:10;;;;;;;9.40;4.50;;;;;;;17.69;83.67;100648.00;5094155;28;20186;-70
2021/07/04 05:15:36;;;;;;;6.90;4.17;;;;;;;17.93;82.48;100642.34;5092939;28;20182;-71
2021/07/04 05:18:05;;;;;;;6.13;4.20;;;;;;;17.91;81.37;100644.31;5075855;28;20618;-71
2021/07/04 05:20:31;;;;;;;4.80;4.30;;;;;;;17.77;82.10;100649.03;5075610;28;20170;-73
2021/07/04 05:22:56;;;;;;;8.10;4.20;;;;;;;17.72;82.63;100650.44;5076372;28;20174;-72
2021/07/04 05:25:22;;;;;;;4.27;3.57;;;;;;;17.81;82.52;100646.94;5075444;28;20248;-72
2021/07/04 05:27:47;;;;;;;6.83;3.73;;;;;;;17.88;81.12;100648.13;5095226;28;20198;-73
2021/07/04 05:30:13;;;;;;;6.20;3.87;;;;;;;17.94;80.46;100649.44;5077188;28;20261;-72
2021/07/04 05:32:38;;;;;;;4.83;3.20;;;;;;;17.93;78.92;100645.91;5080104;28;20189;-73
2021/07/04 05:35:05;;;;;;;4.23;3.37;;;;;;;17.91;79.57;100655.97;5105189;28;20221;-72
2021/07/04 05:37:30;;;;;;;4.87;3.30;;;;;;;18.11;78.63;100652.38;5087110;28;20692;-72
2021/07/04 05:39:58;;;;;;;3.60;3.27;;;;;;;18.34;78.31;100660.31;5068122;28;20178;-72
2021/07/04 05:42:23;;;;;;;4.17;3.27;;;;;;;18.41;77.51;100664.19;5098694;28;20178;-72
2021/07/04 05:44:49;;;;;;;4.87;2.70;;;;;;;18.34;73.72;100653.06;5093452;28;20201;-72
2021/07/04 05:47:14;;;;;;;2.97;2.50;;;;;;;18.31;74.44;100656.06;5075236;28;20219;-71
2021/07/04 05:49:39;;;;;;;4.80;2.90;;;;;;;18.58;74.32;100657.28;5093326;28;20577;-71
2021/07/04 05:52:06;;;;;;;5.30;2.90;;;;;;;18.78;73.42;100658.25;5075803;28;20173;-72
2021/07/04 05:54:31;;;;;;;4.43;2.80;;;;;;;18.92;73.41;100657.84;5075272;28;20190;-72
2021/07/04 05:56:56;;;;;;;2.67;2.23;;;;;;;18.99;73.41;100654.47;5094022;28;20523;-72
2021/07/04 05:59:21;;;;;;;2.93;2.67;;;;;;;19.13;72.57;100655.03;5093436;28;20178;-72
2021/07/04 06:01:47;;;;;;;5.00;2.60;;;;;;;19.24;70.88;100657.63;5093400;28;20179;-72
2021/07/04 06:04:13;;;;;;;3.23;2.53;;;;;;;19.25;71.58;100654.75;5075006;28;20198;-72
2021/07/04 06:06:38;;;;;;;3.90;2.63;;;;;;;19.28;71.29;100659.91;5093437;28;20216;-72
2021/07/04 06:09:03;;;;;;;3.73;2.20;;;;;;;19.24;71.49;100663.03;5093262;28;20182;-72
2021/07/04 06:11:28;;;;;;;3.33;2.30;;;;;;;19.35;71.13;100661.06;5075054;28;20269;-72
2021/07/04 06:13:54;;;;;;;3.53;2.57;;;;;;;19.45;70.19;100655.66;5092955;28;20201;-73
2021/07/04 06:16:19;;;;;;;4.63;2.50;;;;;;;19.56;70.24;100655.53;5075213;28;20210;-72
2021/07/04 06:18:44;;;;;;;4.00;2.50;;;;;;;19.56;70.05;100652.81;5074964;28;20170;-72
2021/07/04 06:21:10;;;;;;;3.20;2.60;;;;;;;19.67;70.21;100651.81;5074986;28;20197;-72
2021/07/04 06:23:35;;;;;;;3.83;2.60;;;;;;;19.77;68.63;100658.09;5074867;28;20214;-72
2021/07/04 06:26:00;;;;;;;3.97;2.17;;;;;;;19.75;67.93;100653.81;5074741;28;20642;-72
2021/07/04 06:28:26;;;;;;;4.53;3.10;;;;;;;19.61;67.53;100653.25;5096332;28;20181;-72
2021/07/04 06:30:51;;;;;;;4.13;2.30;;;;;;;19.71;68.51;100655.09;5061958;28;20178;-71
2021/07/04 06:33:16;;;;;;;4.23;2.60;;;;;;;19.74;68.64;100652.09;5096725;28;20170;-71
2021/07/04 06:35:42;;;;;;;3.60;2.60;;;;;;;19.88;67.44;100651.66;5078755;28;20210;-72
2021/07/04 06:38:07;;;;;;;5.20;2.63;;;;;;;19.83;67.44;100653.94;5061913;28;20264;-71
2021/07/04 06:40:32;;;;;;;3.07;2.53;;;;;;;19.62;68.47;100651.38;5096615;28;20170;-72
2021/07/04 06:42:58;;;;;;;5.10;2.77;;;;;;;19.46;68.93;100648.38;5079008;28;20175;-72
2021/07/04 06:45:23;;;;;;;4.47;2.60;;;;;;;19.41;68.60;100646.09;5078527;28;20198;-72
2021/07/04 06:47:49;;;;;;;3.60;2.37;;;;;;;19.52;68.62;100647.81;5078488;28;20198;-72
2021/07/04 06:50:17;;;;;;;2.97;2.20;;;;;;;19.70;68.21;100648.84;5078236;28;20209;-72
2021/07/04 06:52:43;;;;;;;5.80;2.77;;;;;;;19.85;67.36;100643.81;5061485;28;20186;-73
2021/07/04 06:55:10;;;;;;;4.13;2.83;;;;;;;19.88;67.02;100646.22;5078194;28;20236;-70
2021/07/04 06:57:35;;;;;;;3.30;2.97;;;;;;;19.98;66.62;100641.63;5061379;28;20170;-71
2021/07/04 07:00:12;;;;;;;2.57;2.30;;;;;;;20.21;66.07;100644.88;5078653;28;20634;-72
2021/07/04 07:02:37;;;;;;;5.07;3.27;;;;;;;19.74;68.76;100649.41;5078037;28;20167;-71
2021/07/04 07:05:08;;;;;;;5.63;2.50;;;;;;;20.09;66.15;100646.91;5096221;28;20201;-72
2021/07/04 07:07:33;;;;;;;3.60;3.07;;;;;;;20.32;65.57;100647.38;5096676;28;20213;-72
2021/07/04 07:09:59;;;;;;;2.70;2.30;;;;;;;20.50;64.43;100648.38;5061455;28;20550;-71
2021/07/04 07:12:24;;;;;;;2.23;2.00;;;;;;;20.72;63.63;100641.66;5078704;28;20247;-72
2021/07/04 07:14:49;;;;;;;4.53;2.70;;;;;;;20.20;63.33;100643.16;5061032;28;20573;-72
2021/07/04 07:17:15;;;;;;;3.87;2.63;;;;;;;20.57;62.12;100643.19;5095996;28;20182;-72
2021/07/04 07:19:40;;;;;;;2.87;2.50;;;;;;;20.84;61.91;100635.06;5061110;28;20189;-72
2021/07/04 07:22:05;;;;;;;5.03;2.50;;;;;;;21.01;61.94;100640.66;5061256;28;20174;-72
2021/07/04 07:24:31;;;;;;;2.67;2.47;;;;;;;21.18;59.23;100639.81;5095658;28;20673;-71
2021/07/04 07:26:56;;;;;;;5.50;2.63;;;;;;;21.20;60.00;100640.53;5077563;28;20696;-72
2021/07/04 07:29:22;;;;;;;3.17;2.40;;;;;;;21.27;59.15;100638.94;5096026;28;20170;-71
2021/07/04 07:31:47;;;;;;;5.80;2.67;;;;;;;21.21;60.44;100644.94;5077553;28;20174;-71
2021/07/04 07:34:13;;;;;;;2.67;2.13;;;;;;;20.84;59.34;100640.47;5095519;28;20236;-71
2021/07/04 07:36:38;;;;;;;2.57;2.20;;;;;;;20.84;59.34;100645.91;5078233;28;20175;-72
2021/07/04 07:39:04;;;;;;;4.03;2.50;;;;;;;20.95;60.65;100641.28;5076545;28;20178;-71
2021/07/04 07:41:30;;;;;;;4.33;2.63;;;;;;;20.95;59.30;100646.69;5077333;28;20306;-72
2021/07/04 07:43:55;;;;;;;2.40;2.20;;;;;;;20.99;59.48;100642.66;5095602;28;20271;-71
2021/07/04 07:46:20;;;;;;;3.93;2.60;;;;;;;21.13;60.00;100640.28;5077264;28;20198;-71
2021/07/04 07:48:47;;;;;;;2.90;2.30;;;;;;;21.28;59.54;100637.94;5096383;28;20177;-71
2021/07/04 07:51:13;;;;;;;3.03;2.10;;;;;;;21.33;58.69;100638.31;5077828;28;20174;-72
2021/07/04 07:53:39;;;;;;;3.50;2.57;;;;;;;21.38;59.27;100633.25;5095373;28;20198;-71
2021/07/04 07:56:04;;;;;;;3.40;2.23;;;;;;;21.46;57.15;100636.03;5077196;28;20170;-71
2021/07/04 07:58:29;;;;;;;3.10;2.13;;;;;;;21.48;56.80;100628.59;5077333;28;20206;-72
2021/07/04 08:00:55;;;;;;;2.53;1.80;;;;;;;21.46;55.96;100632.47;5095190;28;20174;-71
2021/07/04 08:03:20;;;;;;;2.20;2.00;;;;;;;21.45;54.73;100630.78;5094987;28;20179;-72
2021/07/04 08:05:45;;;;;;;2.57;1.93;;;;;;;21.37;54.30;100626.13;5095179;28;20170;-72
2021/07/04 08:08:11;;;;;;;2.70;2.07;;;;;;;21.29;55.09;100623.34;5095208;28;20174;-72
2021/07/04 08:10:36;;;;;;;2.47;2.20;;;;;;;21.38;55.00;100616.13;5076737;28;20195;-71
2021/07/04 08:13:03;;;;;;;4.20;2.40;;;;;;;21.47;55.05;100616.03;5077094;28;20680;-71
2021/07/04 08:15:28;;;;;;;3.10;2.00;;;;;;;21.34;54.67;100615.59;5076816;28;20186;-71
2021/07/04 08:17:54;;;;;;;2.97;1.73;;;;;;;21.32;53.51;100614.88;5094897;28;20591;-72
2021/07/04 08:20:20;;;;;;;2.40;1.80;;;;;;;21.56;53.78;100611.53;5076725;28;20178;-71
2021/07/04 08:22:46;;;;;;;2.70;2.40;;;;;;;21.59;52.89;100613.09;5076585;28;20166;-72
2021/07/04 08:25:13;;;;;;;2.20;1.90;;;;;;;21.43;52.50;100608.34;5076351;28;20728;-71
2021/07/04 08:27:38;;;;;;;7.80;3.93;;;;;;;21.80;53.20;100608.16;5076452;28;20197;-72
2021/07/04 08:30:05;;;;;;;4.90;3.33;;;;;;;21.82;50.57;100608.84;5076501;28;20194;-72
2021/07/04 08:32:30;;;;;;;6.83;1.83;;;;;;;21.97;52.02;100607.25;5076565;28;20646;-72
2021/07/04 08:34:55;;;;;;;4.93;2.70;;;;;;;22.03;50.67;100603.94;5094632;28;20251;-72
2021/07/04 08:37:21;;;;;;;2.33;1.87;;;;;;;22.13;51.18;100607.38;5076367;28;20170;-72
2021/07/04 08:39:46;;;;;;;7.27;3.73;;;;;;;22.28;49.86;100604.06;5094354;28;20182;-72
2021/07/04 08:42:11;;;;;;;2.47;1.80;;;;;;;22.14;47.56;100600.94;5094344;28;20178;-72
2021/07/04 08:44:37;;;;;;;3.57;2.60;;;;;;;22.37;47.81;100594.94;5076232;28;20205;-72
2021/07/04 08:47:02;;;;;;;2.63;2.10;;;;;;;22.14;49.05;100598.22;5075961;28;20224;-71
2021/07/04 08:49:28;;;;;;;2.63;1.90;;;;;;;22.00;50.07;100593.34;5075735;28;20227;-71
2021/07/04 08:51:53;;;;;;;2.23;2.00;;;;;;;21.83;49.54;100583.38;5094159;28;20182;-72
2021/07/04 08:54:18;;;;;;;2.23;1.70;;;;;;;22.14;50.03;100587.34;5075865;28;20194;-72
2021/07/04 08:56:47;;;;;;;2.20;1.87;;;;;;;22.41;49.45;100580.00;5094945;28;20254;-73
2021/07/04 08:59:12;;;;;;;2.63;2.07;;;;;;;22.22;49.73;100582.97;5075725;28;20182;-72
2021/07/04 09:01:45;;;;;;;2.03;1.40;;;;;;;22.37;43.05;100570.47;5094052;28;20178;-71
2021/07/04 09:04:14;;;;;;;1.97;1.50;;;;;;;22.49;42.25;100568.31;5076236;28;20186;-71
2021/07/04 09:06:43;;;;;;;2.13;1.53;;;;;;;21.87;42.57;100563.03;5059236;28;20194;-71
2021/07/04 09:09:21;;;;;;;1.40;1.20;;;;;;;22.01;40.98;100558.88;5059034;28;20178;-72
2021/07/04 09:11:51;;;;;;;1.53;1.40;;;;;;;22.35;41.19;100565.19;5093711;28;20711;-71
2021/07/04 09:14:16;;;;;;;2.33;1.30;;;;;;;22.26;39.31;100557.16;5094040;28;20239;-71
2021/07/04 09:16:48;;;;;;;1.37;1.10;;;;;;;22.65;39.71;100563.75;5093726;28;20175;-71
2021/07/04 09:19:15;;;;;;;1.33;1.20;;;;;;;22.84;39.44;100559.09;5093881;28;20188;-72
2021/07/04 09:21:41;;;;;;;1.27;1.17;;;;;;;22.67;37.69;100558.16;5094175;28;20201;-71
2021/07/04 09:24:22;;;;;;;1.20;1.10;;;;;;;22.34;36.91;100555.34;5075685;28;20646;-71
2021/07/04 09:26:47;;;;;;;1.23;1.13;;;;;;;22.58;38.14;100557.28;5075390;28;20186;-72
2021/07/04 09:29:12;;;;;;;1.23;1.13;;;;;;;22.73;37.23;100554.78;5093685;28;20523;-71
2021/07/04 09:31:39;;;;;;;1.03;0.93;;;;;;;22.75;37.86;100548.16;5075462;28;20189;-72
2021/07/04 09:34:08;;;;;;;1.30;1.20;;;;;;;22.89;37.33;100551.28;5075628;28;20190;-71
2021/07/04 09:36:34;;;;;;;1.10;1.00;;;;;;;23.18;37.48;100539.91;5075463;28;20166;-71
2021/07/04 09:38:59;;;;;;;2.27;1.30;;;;;;;22.98;38.45;100551.09;5075464;28;20300;-71
2021/07/04 09:41:24;;;;;;;2.17;1.67;;;;;;;23.26;38.62;100548.06;5093382;28;20273;-71
2021/07/04 09:43:50;;;;;;;1.47;1.33;;;;;;;23.18;38.12;100543.50;5093162;28;20198;-71
2021/07/04 09:46:17;;;;;;;1.40;1.30;;;;;;;23.33;39.27;100539.06;5093128;28;20568;-71
2021/07/04 09:48:44;;;;;;;1.30;1.20;;;;;;;23.19;40.11;100545.19;5075285;28;20630;-71
2021/07/04 09:51:15;;;;;;;1.90;1.53;;;;;;;23.14;41.12;100541.28;5075427;28;20170;-71
2021/07/04 09:53:45;;;;;;;1.93;1.60;;;;;;;23.14;40.94;100542.13;5093294;28;20226;-71
2021/07/04 09:56:21;;;;;;;2.13;1.43;;;;;;;23.37;40.16;100539.56;5093418;28;20170;-71
2021/07/04 09:58:48;;;;;;;1.90;1.70;;;;;;;23.72;40.53;100532.91;5093225;28;20223;-70
2021/07/04 10:01:36;;;;;;;1.83;1.60;;;;;;;23.16;41.75;100531.06;5092478;28;20207;-71
2021/07/04 10:04:07;;;;;;;2.33;1.40;;;;;;;23.42;41.46;100526.31;5058222;28;20199;-70
2021/07/04 10:06:49;;;;;;;3.40;1.57;;;;;;;23.60;41.99;100532.44;5093529;28;20190;-71
2021/07/04 10:09:15;;;;;;;2.10;1.57;;;;;;;23.64;42.03;100530.22;5092976;28;20174;-70
2021/07/04 10:11:40;;;;;;;2.87;1.87;;;;;;;24.05;40.09;100530.94;5058471;28;20542;-71
2021/07/04 10:14:06;;;;;;;2.37;1.67;;;;;;;24.37;40.94;100529.16;5075027;28;20194;-70
2021/07/04 10:16:32;;;;;;;1.60;1.50;;;;;;;24.34;41.46;100532.25;5077500;28;20208;-71
2021/07/04 10:18:58;;;;;;;2.37;1.40;;;;;;;24.44;42.06;100528.25;5099674;28;20174;-71
2021/07/04 10:21:26;;;;;;;1.93;1.40;;;;;;;24.65;40.50;100526.81;5087323;28;20535;-72
2021/07/04 10:23:51;;;;;;;1.73;1.60;;;;;;;25.02;39.68;100523.34;5125823;22;20185;-73
2021/07/04 10:26:17;;;;;;;1.93;1.73;;;;;;;25.27;39.26;100526.72;5097586;28;20197;-74
2021/07/04 10:28:43;;;;;;;2.00;1.60;;;;;;;25.21;41.42;100518.22;5115963;28;20693;-73
2021/07/04 10:31:12;;;;;;;2.47;1.80;;;;;;;25.18;41.48;100524.06;5114833;28;20173;-73
2021/07/04 10:33:37;;;;;;;3.30;1.70;;;;;;;24.92;40.65;100523.56;5096483;28;20166;-74
2021/07/04 10:36:13;;;;;;;2.33;1.60;;;;;;;25.25;40.94;100519.56;5096127;28;20692;-73
2021/07/04 10:38:59;;;;;;;2.07;1.73;;;;;;;25.76;40.58;100528.00;5095923;28;20173;-73
2021/07/04 10:41:34;;;;;;;2.43;1.70;;;;;;;26.14;38.12;100520.56;5113706;28;20545;-71
2021/07/04 10:44:05;;;;;;;2.23;1.67;;;;;;;25.58;40.04;100515.69;5096984;28;20197;-73
2021/07/04 10:46:40;;;;;;;2.33;1.77;;;;;;;25.16;41.41;100515.19;5096285;28;20182;-73
2021/07/04 10:49:09;;;;;;;1.80;1.50;;;;;;;25.18;40.52;100513.13;5097057;28;20165;-72
2021/07/04 10:51:53;;;;;;;4.77;2.00;;;;;;;24.18;43.01;100508.59;5115656;28;20170;-73
2021/07/04 10:54:44;;;;;;;2.17;1.83;;;;;;;24.34;42.16;100511.28;5097466;28;20542;-72
2021/07/04 10:57:12;;;;;;;4.13;1.57;;;;;;;24.30;42.64;100507.22;5096827;28;20169;-72
2021/07/04 11:00:07;;;;;;;2.57;1.90;;;;;;;24.36;42.82;100506.50;5096807;28;20162;-72
2021/07/04 11:02:37;;;;;;;2.67;1.97;;;;;;;25.22;41.36;100492.63;5115012;28;20158;-73
2021/07/04 11:05:15;;;;;;;2.50;1.77;;;;;;;26.17;39.32;100508.38;5113911;28;20192;-73
2021/07/04 11:07:52;;;;;;;2.03;1.83;;;;;;;26.57;38.99;100506.19;5113270;28;20198;-73
2021/07/04 11:10:24;;;;;;;2.83;1.67;;;;;;;25.67;38.98;100492.75;5112897;28;20235;-72
2021/07/04 11:12:50;;;;;;;3.00;1.90;;;;;;;25.31;40.04;100490.69;5113019;28;20158;-72
2021/07/04 11:15:18;;;;;;;2.80;1.97;;;;;;;25.01;41.09;100494.34;5115731;28;20189;-73
2021/07/04 11:17:59;;;;;;;2.60;2.40;;;;;;;25.37;38.47;100495.41;5116514;28;20654;-72
2021/07/04 11:20:39;;;;;;;2.23;1.70;;;;;;;24.92;39.98;100488.94;5116392;28;20293;-72
2021/07/04 11:23:06;;;;;;;3.13;2.20;;;;;;;25.30;39.12;100482.66;5116515;28;20642;-71